Airfield :
LOGIN :

Register | Disclaimer

   EN    FR    IT 

 










Legend :    VFR   Marginal VFR   IFR   Intensive IFR   Very Intensive IFR
Visi :
Ceiling :
>= 8 km
>= 3000ft
5 to 8 km
1000 to 3000 ft
1500m to 5 km
500 to 1000 ft
800 to 1500m
200 to 500 ft
< 800m
< 200 ft
Symbols :   Thunderstorms  Fog  Heavy snow  Heavy precipitations  Wind > 20 kt
SIGMETs :     Misc.  Thunderstorms  Icing  Turbulence  Mountain Waves  Volcanic Ashes







- Airport Elevation : 1475 ft


LSZC - Buochs Stans

CURRENT METAR :
  • 222020Z AUTO 25005KT 200V350 9999 -TSRA SCT050CB BKN100 22/17 Q1017

EXPIRED METARs :
  • 221950Z AUTO 27005KT 230V320 9999 SCT110 SCT220 SCT///CB 22/17 Q1015
  • 221920Z AUTO 19006KT 9999 -RA FEW050TCU SCT070 BKN100 23/17 Q1015
  • 221850Z AUTO VRB03KT 9999 BKN140 BKN230 //////TCU 23/18 Q1015
  • 221820Z AUTO VRB02KT 9999 SCT150 //////TCU 24/18 Q1014
  • 221750Z AUTO VRB03KT 9999 NCD 24/18 Q1014

Expired Forecast.
No reported NOTAMs for that airfield.
1 SIGMET reported for the Switzerland FIR (LSAS) :
 
Squall lined thunderstorms
LSAS SIGMET 2 VALID 222017/222200 LSZH
LSAS SWITZERLAND FIR/UIR SQL TS OBS N OF N4651 AND E OF E00812 TOP FL400 MOV NE NC=



MET'MAP, your aeronautical weather chart ! - Copyright ORBIFLY December 2007 - Disclaimer

ORBIFLY MET'MAP TEAM :

Programming & Development : Alexandra Zaïnal
Concept & Development : Baudouin d'Aumeries
Co-Development & Prog : Marc-Olivier Méhu
Technical & hardware support : Manuel Goepfert

Contact : metmap@orbifly.com




SOURCES & CREDITS :

   NOAA